sensor_id;sensor_type;location;lat;lon;timestamp;P1;durP1;ratioP1;P2;durP2;ratioP2
67248;SDS011;63247;54.300;18.592;2024-01-16T00:01:17;5.50;;;1.40;;
67248;SDS011;63247;54.300;18.592;2024-01-16T00:03:43;4.13;;;1.10;;
67248;SDS011;63247;54.300;18.592;2024-01-16T00:06:09;3.92;;;1.00;;
67248;SDS011;63247;54.300;18.592;2024-01-16T00:08:35;4.63;;;1.30;;
67248;SDS011;63247;54.300;18.592;2024-01-16T00:11:01;5.33;;;1.20;;
67248;SDS011;63247;54.300;18.592;2024-01-16T00:13:27;4.82;;;1.10;;
67248;SDS011;63247;54.300;18.592;2024-01-16T00:15:52;5.27;;;0.90;;
67248;SDS011;63247;54.300;18.592;2024-01-16T00:18:18;3.67;;;0.87;;
67248;SDS011;63247;54.300;18.592;2024-01-16T00:20:43;4.00;;;0.70;;
67248;SDS011;63247;54.300;18.592;2024-01-16T00:23:09;3.53;;;0.65;;
67248;SDS011;63247;54.300;18.592;2024-01-16T00:25:35;4.30;;;0.80;;
67248;SDS011;63247;54.300;18.592;2024-01-16T00:28:01;2.95;;;0.60;;
67248;SDS011;63247;54.300;18.592;2024-01-16T00:30:27;3.37;;;0.67;;
67248;SDS011;63247;54.300;18.592;2024-01-16T00:32:52;4.97;;;0.70;;
67248;SDS011;63247;54.300;18.592;2024-01-16T00:35:18;2.97;;;0.80;;
67248;SDS011;63247;54.300;18.592;2024-01-16T00:37:44;4.03;;;0.60;;
67248;SDS011;63247;54.300;18.592;2024-01-16T00:40:09;4.37;;;0.50;;
67248;SDS011;63247;54.300;18.592;2024-01-16T00:42:35;3.93;;;0.80;;
67248;SDS011;63247;54.300;18.592;2024-01-16T00:45:00;4.93;;;0.80;;
67248;SDS011;63247;54.300;18.592;2024-01-16T00:47:26;4.30;;;0.90;;
67248;SDS011;63247;54.300;18.592;2024-01-16T00:49:51;5.73;;;0.60;;
67248;SDS011;63247;54.300;18.592;2024-01-16T00:52:17;3.80;;;0.75;;
67248;SDS011;63247;54.300;18.592;2024-01-16T00:54:43;4.00;;;0.57;;
67248;SDS011;63247;54.300;18.592;2024-01-16T00:57:08;2.83;;;0.50;;
67248;SDS011;63247;54.300;18.592;2024-01-16T00:59:34;3.63;;;0.63;;
67248;SDS011;63247;54.300;18.592;2024-01-16T01:01:59;4.67;;;0.70;;
67248;SDS011;63247;54.300;18.592;2024-01-16T01:04:25;4.80;;;0.47;;
67248;SDS011;63247;54.300;18.592;2024-01-16T01:06:50;4.03;;;0.90;;
67248;SDS011;63247;54.300;18.592;2024-01-16T01:09:16;3.17;;;0.60;;
67248;SDS011;63247;54.300;18.592;2024-01-16T01:11:41;5.93;;;0.50;;
67248;SDS011;63247;54.300;18.592;2024-01-16T01:14:07;6.60;;;0.80;;
67248;SDS011;63247;54.300;18.592;2024-01-16T01:16:32;6.75;;;0.80;;
67248;SDS011;63247;54.300;18.592;2024-01-16T01:18:58;4.03;;;0.60;;
67248;SDS011;63247;54.300;18.592;2024-01-16T01:21:23;2.90;;;0.47;;
67248;SDS011;63247;54.300;18.592;2024-01-16T01:23:49;4.17;;;1.00;;
67248;SDS011;63247;54.300;18.592;2024-01-16T01:26:14;4.43;;;0.70;;
67248;SDS011;63247;54.300;18.592;2024-01-16T01:28:42;3.70;;;0.65;;
67248;SDS011;63247;54.300;18.592;2024-01-16T01:31:08;3.13;;;0.70;;
67248;SDS011;63247;54.300;18.592;2024-01-16T01:33:35;3.60;;;0.60;;
67248;SDS011;63247;54.300;18.592;2024-01-16T01:36:00;3.50;;;0.70;;
67248;SDS011;63247;54.300;18.592;2024-01-16T01:38:25;5.10;;;0.70;;
67248;SDS011;63247;54.300;18.592;2024-01-16T01:40:51;4.67;;;0.70;;
67248;SDS011;63247;54.300;18.592;2024-01-16T01:43:17;4.77;;;0.80;;
67248;SDS011;63247;54.300;18.592;2024-01-16T01:48:43;3.30;;;0.50;;
67248;SDS011;63247;54.300;18.592;2024-01-16T01:51:12;3.83;;;0.60;;
67248;SDS011;63247;54.300;18.592;2024-01-16T01:53:38;3.75;;;0.60;;
67248;SDS011;63247;54.300;18.592;2024-01-16T01:56:06;5.00;;;0.55;;
67248;SDS011;63247;54.300;18.592;2024-01-16T01:58:34;4.43;;;0.70;;
67248;SDS011;63247;54.300;18.592;2024-01-16T02:01:00;5.17;;;1.00;;
67248;SDS011;63247;54.300;18.592;2024-01-16T02:03:27;4.90;;;0.70;;
67248;SDS011;63247;54.300;18.592;2024-01-16T02:05:55;5.53;;;0.88;;
67248;SDS011;63247;54.300;18.592;2024-01-16T02:08:21;3.95;;;0.30;;
67248;SDS011;63247;54.300;18.592;2024-01-16T02:10:47;6.07;;;1.15;;
67248;SDS011;63247;54.300;18.592;2024-01-16T02:13:14;4.70;;;0.90;;
67248;SDS011;63247;54.300;18.592;2024-01-16T02:15:40;4.20;;;0.70;;
67248;SDS011;63247;54.300;18.592;2024-01-16T02:18:06;5.57;;;0.83;;
67248;SDS011;63247;54.300;18.592;2024-01-16T02:20:32;3.33;;;0.55;;
67248;SDS011;63247;54.300;18.592;2024-01-16T02:22:58;4.95;;;0.60;;
67248;SDS011;63247;54.300;18.592;2024-01-16T02:25:28;5.30;;;0.40;;
67248;SDS011;63247;54.300;18.592;2024-01-16T02:27:54;4.25;;;0.55;;
67248;SDS011;63247;54.300;18.592;2024-01-16T02:30:19;4.40;;;0.53;;
67248;SDS011;63247;54.300;18.592;2024-01-16T02:32:45;3.83;;;0.70;;
67248;SDS011;63247;54.300;18.592;2024-01-16T02:35:10;2.03;;;0.30;;
67248;SDS011;63247;54.300;18.592;2024-01-16T02:37:35;5.17;;;0.60;;
67248;SDS011;63247;54.300;18.592;2024-01-16T02:40:01;3.17;;;0.60;;
67248;SDS011;63247;54.300;18.592;2024-01-16T02:42:31;2.95;;;0.70;;
67248;SDS011;63247;54.300;18.592;2024-01-16T02:44:57;5.38;;;0.50;;
67248;SDS011;63247;54.300;18.592;2024-01-16T02:47:23;2.40;;;0.60;;
67248;SDS011;63247;54.300;18.592;2024-01-16T02:49:48;3.13;;;0.40;;
67248;SDS011;63247;54.300;18.592;2024-01-16T02:52:13;6.40;;;1.33;;
67248;SDS011;63247;54.300;18.592;2024-01-16T02:54:40;4.90;;;0.90;;
67248;SDS011;63247;54.300;18.592;2024-01-16T02:57:05;3.77;;;0.57;;
67248;SDS011;63247;54.300;18.592;2024-01-16T02:59:30;1.90;;;0.40;;
67248;SDS011;63247;54.300;18.592;2024-01-16T03:01:56;3.58;;;0.70;;
67248;SDS011;63247;54.300;18.592;2024-01-16T03:04:21;2.70;;;0.40;;
67248;SDS011;63247;54.300;18.592;2024-01-16T03:06:47;2.17;;;0.30;;
67248;SDS011;63247;54.300;18.592;2024-01-16T03:09:12;3.17;;;0.47;;
67248;SDS011;63247;54.300;18.592;2024-01-16T03:11:38;6.88;;;0.50;;
67248;SDS011;63247;54.300;18.592;2024-01-16T03:14:04;4.00;;;0.50;;
67248;SDS011;63247;54.300;18.592;2024-01-16T03:16:30;2.07;;;0.40;;
67248;SDS011;63247;54.300;18.592;2024-01-16T03:18:56;3.60;;;0.50;;
67248;SDS011;63247;54.300;18.592;2024-01-16T03:21:22;4.90;;;0.60;;
67248;SDS011;63247;54.300;18.592;2024-01-16T03:23:48;2.20;;;0.38;;
67248;SDS011;63247;54.300;18.592;2024-01-16T03:26:13;3.00;;;0.47;;
67248;SDS011;63247;54.300;18.592;2024-01-16T03:28:40;2.97;;;0.60;;
67248;SDS011;63247;54.300;18.592;2024-01-16T03:31:06;3.05;;;0.43;;
67248;SDS011;63247;54.300;18.592;2024-01-16T03:33:31;3.67;;;0.52;;
67248;SDS011;63247;54.300;18.592;2024-01-16T03:35:59;2.63;;;0.50;;
67248;SDS011;63247;54.300;18.592;2024-01-16T03:38:24;3.35;;;0.40;;
67248;SDS011;63247;54.300;18.592;2024-01-16T03:40:50;4.53;;;0.40;;
67248;SDS011;63247;54.300;18.592;2024-01-16T03:43:16;2.60;;;0.40;;
67248;SDS011;63247;54.300;18.592;2024-01-16T03:45:42;6.05;;;0.40;;
67248;SDS011;63247;54.300;18.592;2024-01-16T03:48:07;5.03;;;0.50;;
67248;SDS011;63247;54.300;18.592;2024-01-16T03:50:33;5.32;;;0.60;;
67248;SDS011;63247;54.300;18.592;2024-01-16T03:52:59;4.57;;;0.50;;
67248;SDS011;63247;54.300;18.592;2024-01-16T03:55:24;5.50;;;0.60;;
67248;SDS011;63247;54.300;18.592;2024-01-16T03:57:49;4.95;;;0.50;;
67248;SDS011;63247;54.300;18.592;2024-01-16T04:00:16;5.22;;;0.55;;
67248;SDS011;63247;54.300;18.592;2024-01-16T04:02:41;3.65;;;0.60;;
67248;SDS011;63247;54.300;18.592;2024-01-16T04:05:07;4.33;;;0.53;;
67248;SDS011;63247;54.300;18.592;2024-01-16T04:07:33;3.43;;;0.40;;
67248;SDS011;63247;54.300;18.592;2024-01-16T04:09:58;4.82;;;0.50;;
67248;SDS011;63247;54.300;18.592;2024-01-16T04:12:23;3.40;;;0.63;;
67248;SDS011;63247;54.300;18.592;2024-01-16T04:14:49;3.83;;;0.50;;
67248;SDS011;63247;54.300;18.592;2024-01-16T04:17:14;2.60;;;0.50;;
67248;SDS011;63247;54.300;18.592;2024-01-16T04:19:40;3.97;;;0.57;;
67248;SDS011;63247;54.300;18.592;2024-01-16T04:22:05;5.30;;;0.63;;
67248;SDS011;63247;54.300;18.592;2024-01-16T04:24:31;2.73;;;0.50;;
67248;SDS011;63247;54.300;18.592;2024-01-16T04:26:56;2.90;;;0.60;;
67248;SDS011;63247;54.300;18.592;2024-01-16T04:29:22;6.07;;;0.80;;
67248;SDS011;63247;54.300;18.592;2024-01-16T04:31:48;3.78;;;0.80;;
67248;SDS011;63247;54.300;18.592;2024-01-16T04:34:13;5.00;;;0.50;;
67248;SDS011;63247;54.300;18.592;2024-01-16T04:36:38;4.50;;;0.60;;
67248;SDS011;63247;54.300;18.592;2024-01-16T04:39:04;2.57;;;0.50;;
67248;SDS011;63247;54.300;18.592;2024-01-16T04:41:29;3.67;;;0.60;;
67248;SDS011;63247;54.300;18.592;2024-01-16T04:43:55;3.75;;;0.60;;
67248;SDS011;63247;54.300;18.592;2024-01-16T04:46:20;2.97;;;0.60;;
67248;SDS011;63247;54.300;18.592;2024-01-16T04:48:46;4.80;;;0.67;;
67248;SDS011;63247;54.300;18.592;2024-01-16T04:51:11;7.10;;;1.20;;
67248;SDS011;63247;54.300;18.592;2024-01-16T04:53:36;4.88;;;0.82;;
67248;SDS011;63247;54.300;18.592;2024-01-16T04:56:02;6.37;;;1.30;;
67248;SDS011;63247;54.300;18.592;2024-01-16T04:58:27;5.17;;;1.00;;
67248;SDS011;63247;54.300;18.592;2024-01-16T05:00:53;6.57;;;0.90;;
67248;SDS011;63247;54.300;18.592;2024-01-16T05:03:18;5.13;;;0.80;;
67248;SDS011;63247;54.300;18.592;2024-01-16T05:05:44;3.30;;;0.60;;
67248;SDS011;63247;54.300;18.592;2024-01-16T05:08:09;4.53;;;1.00;;
67248;SDS011;63247;54.300;18.592;2024-01-16T05:10:34;4.53;;;0.80;;
67248;SDS011;63247;54.300;18.592;2024-01-16T05:13:00;6.80;;;1.20;;
67248;SDS011;63247;54.300;18.592;2024-01-16T05:15:25;5.07;;;1.00;;
67248;SDS011;63247;54.300;18.592;2024-01-16T05:17:51;4.10;;;0.80;;
67248;SDS011;63247;54.300;18.592;2024-01-16T05:20:18;6.72;;;1.50;;
67248;SDS011;63247;54.300;18.592;2024-01-16T05:22:44;5.43;;;1.35;;
67248;SDS011;63247;54.300;18.592;2024-01-16T05:25:09;3.80;;;0.90;;
67248;SDS011;63247;54.300;18.592;2024-01-16T05:27:35;5.37;;;1.13;;
67248;SDS011;63247;54.300;18.592;2024-01-16T05:30:00;7.20;;;1.50;;
67248;SDS011;63247;54.300;18.592;2024-01-16T05:32:26;5.53;;;1.25;;
67248;SDS011;63247;54.300;18.592;2024-01-16T05:34:52;4.27;;;0.93;;
67248;SDS011;63247;54.300;18.592;2024-01-16T05:37:19;5.78;;;0.90;;
67248;SDS011;63247;54.300;18.592;2024-01-16T05:39:44;5.25;;;0.90;;
67248;SDS011;63247;54.300;18.592;2024-01-16T05:42:11;3.70;;;0.87;;
67248;SDS011;63247;54.300;18.592;2024-01-16T05:44:37;3.25;;;0.70;;
67248;SDS011;63247;54.300;18.592;2024-01-16T05:47:03;4.97;;;1.13;;
67248;SDS011;63247;54.300;18.592;2024-01-16T05:49:29;3.77;;;0.90;;
67248;SDS011;63247;54.300;18.592;2024-01-16T05:51:54;6.10;;;1.13;;
67248;SDS011;63247;54.300;18.592;2024-01-16T05:54:20;4.05;;;0.90;;
67248;SDS011;63247;54.300;18.592;2024-01-16T05:56:45;5.33;;;1.03;;
67248;SDS011;63247;54.300;18.592;2024-01-16T05:59:10;3.23;;;0.70;;
67248;SDS011;63247;54.300;18.592;2024-01-16T06:01:36;5.53;;;1.00;;
67248;SDS011;63247;54.300;18.592;2024-01-16T06:04:02;7.75;;;1.75;;
67248;SDS011;63247;54.300;18.592;2024-01-16T06:06:28;4.30;;;1.17;;
67248;SDS011;63247;54.300;18.592;2024-01-16T06:08:53;6.65;;;1.95;;
67248;SDS011;63247;54.300;18.592;2024-01-16T06:11:28;5.18;;;1.30;;
67248;SDS011;63247;54.300;18.592;2024-01-16T06:13:54;5.53;;;1.27;;
67248;SDS011;63247;54.300;18.592;2024-01-16T06:16:20;4.97;;;0.75;;
67248;SDS011;63247;54.300;18.592;2024-01-16T06:18:45;5.80;;;1.40;;
67248;SDS011;63247;54.300;18.592;2024-01-16T06:21:10;5.67;;;1.20;;
67248;SDS011;63247;54.300;18.592;2024-01-16T06:23:37;6.22;;;1.45;;
67248;SDS011;63247;54.300;18.592;2024-01-16T06:26:02;7.40;;;1.65;;
67248;SDS011;63247;54.300;18.592;2024-01-16T06:28:28;6.83;;;1.27;;
67248;SDS011;63247;54.300;18.592;2024-01-16T06:30:53;7.17;;;1.27;;
67248;SDS011;63247;54.300;18.592;2024-01-16T06:33:19;6.80;;;2.00;;
67248;SDS011;63247;54.300;18.592;2024-01-16T06:35:44;7.33;;;2.13;;
67248;SDS011;63247;54.300;18.592;2024-01-16T06:38:09;8.20;;;1.83;;
67248;SDS011;63247;54.300;18.592;2024-01-16T06:40:35;6.30;;;1.67;;
67248;SDS011;63247;54.300;18.592;2024-01-16T06:43:00;6.97;;;1.60;;
67248;SDS011;63247;54.300;18.592;2024-01-16T06:45:26;6.50;;;1.40;;
67248;SDS011;63247;54.300;18.592;2024-01-16T06:47:51;5.57;;;1.30;;
67248;SDS011;63247;54.300;18.592;2024-01-16T06:50:17;7.05;;;1.38;;
67248;SDS011;63247;54.300;18.592;2024-01-16T06:52:42;6.63;;;1.50;;
67248;SDS011;63247;54.300;18.592;2024-01-16T06:55:07;4.87;;;1.40;;
67248;SDS011;63247;54.300;18.592;2024-01-16T06:57:33;6.80;;;1.30;;
67248;SDS011;63247;54.300;18.592;2024-01-16T06:59:58;6.57;;;1.07;;
67248;SDS011;63247;54.300;18.592;2024-01-16T07:02:23;4.53;;;1.20;;
67248;SDS011;63247;54.300;18.592;2024-01-16T07:04:49;3.83;;;1.27;;
67248;SDS011;63247;54.300;18.592;2024-01-16T07:07:14;7.60;;;1.30;;
67248;SDS011;63247;54.300;18.592;2024-01-16T07:09:40;5.17;;;1.00;;
67248;SDS011;63247;54.300;18.592;2024-01-16T07:12:05;7.13;;;1.00;;
67248;SDS011;63247;54.300;18.592;2024-01-16T07:14:31;4.43;;;1.10;;
67248;SDS011;63247;54.300;18.592;2024-01-16T07:16:57;4.25;;;0.95;;
67248;SDS011;63247;54.300;18.592;2024-01-16T07:19:24;3.13;;;0.60;;
67248;SDS011;63247;54.300;18.592;2024-01-16T07:21:49;3.53;;;0.70;;
67248;SDS011;63247;54.300;18.592;2024-01-16T07:24:15;9.43;;;1.33;;
67248;SDS011;63247;54.300;18.592;2024-01-16T07:26:40;5.70;;;1.10;;
67248;SDS011;63247;54.300;18.592;2024-01-16T07:29:06;6.20;;;1.40;;
67248;SDS011;63247;54.300;18.592;2024-01-16T07:31:32;4.95;;;1.33;;
67248;SDS011;63247;54.300;18.592;2024-01-16T07:33:57;4.60;;;1.07;;
67248;SDS011;63247;54.300;18.592;2024-01-16T07:36:23;7.43;;;1.80;;
67248;SDS011;63247;54.300;18.592;2024-01-16T07:38:48;7.43;;;1.50;;
67248;SDS011;63247;54.300;18.592;2024-01-16T07:41:13;6.93;;;1.77;;
67248;SDS011;63247;54.300;18.592;2024-01-16T07:43:39;7.43;;;2.13;;
67248;SDS011;63247;54.300;18.592;2024-01-16T07:46:04;7.63;;;1.88;;
67248;SDS011;63247;54.300;18.592;2024-01-16T07:48:30;7.70;;;1.80;;
67248;SDS011;63247;54.300;18.592;2024-01-16T07:50:55;4.30;;;1.30;;
67248;SDS011;63247;54.300;18.592;2024-01-16T07:53:21;6.00;;;1.07;;
67248;SDS011;63247;54.300;18.592;2024-01-16T07:55:46;3.97;;;1.05;;
67248;SDS011;63247;54.300;18.592;2024-01-16T07:58:12;9.53;;;2.47;;
67248;SDS011;63247;54.300;18.592;2024-01-16T08:00:37;5.80;;;1.53;;
67248;SDS011;63247;54.300;18.592;2024-01-16T08:03:03;6.93;;;1.70;;
67248;SDS011;63247;54.300;18.592;2024-01-16T08:05:30;7.22;;;1.88;;
67248;SDS011;63247;54.300;18.592;2024-01-16T08:07:56;6.25;;;1.40;;
67248;SDS011;63247;54.300;18.592;2024-01-16T08:10:22;6.13;;;1.40;;
67248;SDS011;63247;54.300;18.592;2024-01-16T08:12:48;5.13;;;1.70;;
67248;SDS011;63247;54.300;18.592;2024-01-16T08:15:13;5.80;;;1.40;;
67248;SDS011;63247;54.300;18.592;2024-01-16T08:17:39;5.80;;;1.70;;
67248;SDS011;63247;54.300;18.592;2024-01-16T08:20:05;8.50;;;1.60;;
67248;SDS011;63247;54.300;18.592;2024-01-16T08:22:30;4.43;;;1.45;;
67248;SDS011;63247;54.300;18.592;2024-01-16T08:24:56;4.93;;;1.27;;
67248;SDS011;63247;54.300;18.592;2024-01-16T08:27:22;5.07;;;1.40;;
67248;SDS011;63247;54.300;18.592;2024-01-16T08:29:47;4.60;;;1.50;;
67248;SDS011;63247;54.300;18.592;2024-01-16T08:32:15;8.52;;;1.33;;
67248;SDS011;63247;54.300;18.592;2024-01-16T08:34:41;4.53;;;1.23;;
67248;SDS011;63247;54.300;18.592;2024-01-16T08:37:06;6.57;;;1.50;;
67248;SDS011;63247;54.300;18.592;2024-01-16T08:39:32;7.07;;;1.70;;
67248;SDS011;63247;54.300;18.592;2024-01-16T08:41:59;5.07;;;1.67;;
67248;SDS011;63247;54.300;18.592;2024-01-16T08:44:25;5.88;;;1.60;;
67248;SDS011;63247;54.300;18.592;2024-01-16T08:46:50;5.30;;;1.80;;
67248;SDS011;63247;54.300;18.592;2024-01-16T08:49:15;6.60;;;1.70;;
67248;SDS011;63247;54.300;18.592;2024-01-16T08:51:41;7.00;;;2.10;;
67248;SDS011;63247;54.300;18.592;2024-01-16T08:54:06;6.93;;;1.73;;
67248;SDS011;63247;54.300;18.592;2024-01-16T08:56:32;8.23;;;2.42;;
67248;SDS011;63247;54.300;18.592;2024-01-16T08:58:57;5.60;;;1.93;;
67248;SDS011;63247;54.300;18.592;2024-01-16T09:01:23;5.43;;;1.53;;
67248;SDS011;63247;54.300;18.592;2024-01-16T09:03:48;6.63;;;1.97;;
67248;SDS011;63247;54.300;18.592;2024-01-16T09:06:14;7.17;;;1.90;;
67248;SDS011;63247;54.300;18.592;2024-01-16T09:08:39;7.72;;;2.05;;
67248;SDS011;63247;54.300;18.592;2024-01-16T09:11:04;7.00;;;2.25;;
67248;SDS011;63247;54.300;18.592;2024-01-16T09:13:30;7.10;;;1.90;;
67248;SDS011;63247;54.300;18.592;2024-01-16T09:15:55;6.60;;;1.83;;
67248;SDS011;63247;54.300;18.592;2024-01-16T09:18:20;11.67;;;3.60;;
67248;SDS011;63247;54.300;18.592;2024-01-16T09:20:46;7.17;;;1.90;;
67248;SDS011;63247;54.300;18.592;2024-01-16T09:23:12;4.80;;;1.50;;
67248;SDS011;63247;54.300;18.592;2024-01-16T09:25:37;6.73;;;1.90;;
67248;SDS011;63247;54.300;18.592;2024-01-16T09:28:03;6.22;;;1.83;;
67248;SDS011;63247;54.300;18.592;2024-01-16T09:30:28;7.60;;;2.00;;
67248;SDS011;63247;54.300;18.592;2024-01-16T09:32:54;7.30;;;1.70;;
67248;SDS011;63247;54.300;18.592;2024-01-16T09:35:19;6.57;;;2.10;;
67248;SDS011;63247;54.300;18.592;2024-01-16T09:37:44;6.30;;;1.50;;
67248;SDS011;63247;54.300;18.592;2024-01-16T09:40:10;6.22;;;1.77;;
67248;SDS011;63247;54.300;18.592;2024-01-16T09:42:36;4.80;;;1.60;;
67248;SDS011;63247;54.300;18.592;2024-01-16T09:45:01;5.63;;;1.50;;
67248;SDS011;63247;54.300;18.592;2024-01-16T09:47:30;6.45;;;2.10;;
67248;SDS011;63247;54.300;18.592;2024-01-16T09:49:57;4.40;;;1.48;;
67248;SDS011;63247;54.300;18.592;2024-01-16T09:52:25;6.47;;;1.40;;
67248;SDS011;63247;54.300;18.592;2024-01-16T09:54:50;4.47;;;1.58;;
67248;SDS011;63247;54.300;18.592;2024-01-16T09:57:16;6.97;;;1.58;;
67248;SDS011;63247;54.300;18.592;2024-01-16T09:59:45;6.03;;;1.50;;
67248;SDS011;63247;54.300;18.592;2024-01-16T10:02:11;6.90;;;1.85;;
67248;SDS011;63247;54.300;18.592;2024-01-16T10:04:38;5.80;;;1.63;;
67248;SDS011;63247;54.300;18.592;2024-01-16T10:07:06;3.88;;;0.80;;
67248;SDS011;63247;54.300;18.592;2024-01-16T10:09:34;5.13;;;1.55;;
67248;SDS011;63247;54.300;18.592;2024-01-16T10:12:00;4.37;;;1.20;;
67248;SDS011;63247;54.300;18.592;2024-01-16T10:14:25;4.30;;;1.33;;
67248;SDS011;63247;54.300;18.592;2024-01-16T10:17:00;4.55;;;1.10;;
67248;SDS011;63247;54.300;18.592;2024-01-16T10:19:52;6.07;;;0.93;;
67248;SDS011;63247;54.300;18.592;2024-01-16T10:22:23;5.13;;;1.10;;
67248;SDS011;63247;54.300;18.592;2024-01-16T10:25:08;5.90;;;1.40;;
67248;SDS011;63247;54.300;18.592;2024-01-16T10:27:41;4.40;;;1.20;;
67248;SDS011;63247;54.300;18.592;2024-01-16T10:30:07;4.32;;;1.15;;
67248;SDS011;63247;54.300;18.592;2024-01-16T10:32:35;5.73;;;1.40;;
67248;SDS011;63247;54.300;18.592;2024-01-16T10:35:12;5.47;;;1.50;;
67248;SDS011;63247;54.300;18.592;2024-01-16T10:37:48;4.38;;;0.93;;
67248;SDS011;63247;54.300;18.592;2024-01-16T10:42:44;4.88;;;1.20;;
67248;SDS011;63247;54.300;18.592;2024-01-16T10:45:17;6.70;;;1.10;;
67248;SDS011;63247;54.300;18.592;2024-01-16T10:47:47;4.53;;;0.98;;
67248;SDS011;63247;54.300;18.592;2024-01-16T10:50:13;8.07;;;1.52;;
67248;SDS011;63247;54.300;18.592;2024-01-16T10:52:45;4.73;;;1.30;;
67248;SDS011;63247;54.300;18.592;2024-01-16T10:55:15;5.15;;;1.60;;
67248;SDS011;63247;54.300;18.592;2024-01-16T10:57:48;5.20;;;1.30;;
67248;SDS011;63247;54.300;18.592;2024-01-16T11:00:16;5.95;;;1.65;;
67248;SDS011;63247;54.300;18.592;2024-01-16T11:02:48;4.22;;;1.30;;
67248;SDS011;63247;54.300;18.592;2024-01-16T11:05:17;6.67;;;1.60;;
67248;SDS011;63247;54.300;18.592;2024-01-16T11:07:42;6.38;;;2.10;;
67248;SDS011;63247;54.300;18.592;2024-01-16T11:10:12;6.82;;;2.50;;
67248;SDS011;63247;54.300;18.592;2024-01-16T11:12:38;7.55;;;2.10;;
67248;SDS011;63247;54.300;18.592;2024-01-16T11:15:07;6.57;;;1.88;;
67248;SDS011;63247;54.300;18.592;2024-01-16T11:17:33;6.70;;;1.83;;
67248;SDS011;63247;54.300;18.592;2024-01-16T11:20:02;5.28;;;1.13;;
67248;SDS011;63247;54.300;18.592;2024-01-16T11:22:35;3.60;;;1.02;;
67248;SDS011;63247;54.300;18.592;2024-01-16T11:25:07;4.07;;;1.10;;
67248;SDS011;63247;54.300;18.592;2024-01-16T11:27:43;5.53;;;1.45;;
67248;SDS011;63247;54.300;18.592;2024-01-16T11:30:10;4.33;;;1.20;;
67248;SDS011;63247;54.300;18.592;2024-01-16T11:32:37;5.97;;;1.10;;
67248;SDS011;63247;54.300;18.592;2024-01-16T11:35:05;5.07;;;1.20;;
67248;SDS011;63247;54.300;18.592;2024-01-16T11:37:39;3.83;;;1.13;;
67248;SDS011;63247;54.300;18.592;2024-01-16T11:42:42;5.07;;;1.20;;
67248;SDS011;63247;54.300;18.592;2024-01-16T11:45:54;6.05;;;1.27;;
67248;SDS011;63247;54.300;18.592;2024-01-16T11:48:10;5.82;;;1.45;;
67248;SDS011;63247;54.300;18.592;2024-01-16T11:50:36;3.63;;;0.77;;
67248;SDS011;63247;54.300;18.592;2024-01-16T11:53:02;5.37;;;0.83;;
67248;SDS011;63247;54.300;18.592;2024-01-16T12:00:47;4.27;;;0.97;;
67248;SDS011;63247;54.300;18.592;2024-01-16T12:03:16;4.95;;;0.80;;
67248;SDS011;63247;54.300;18.592;2024-01-16T12:05:43;5.60;;;1.05;;
67248;SDS011;63247;54.300;18.592;2024-01-16T12:08:09;5.40;;;1.10;;
67248;SDS011;63247;54.300;18.592;2024-01-16T12:10:35;3.35;;;0.85;;
67248;SDS011;63247;54.300;18.592;2024-01-16T12:13:11;3.03;;;0.60;;
67248;SDS011;63247;54.300;18.592;2024-01-16T12:15:37;4.47;;;0.80;;
67248;SDS011;63247;54.300;18.592;2024-01-16T12:18:03;5.00;;;0.90;;
67248;SDS011;63247;54.300;18.592;2024-01-16T12:20:31;4.55;;;0.77;;
67248;SDS011;63247;54.300;18.592;2024-01-16T12:23:02;3.90;;;1.00;;
67248;SDS011;63247;54.300;18.592;2024-01-16T12:25:33;6.10;;;0.90;;
67248;SDS011;63247;54.300;18.592;2024-01-16T12:28:03;3.17;;;0.80;;
67248;SDS011;63247;54.300;18.592;2024-01-16T12:30:30;12.67;;;3.13;;
67248;SDS011;63247;54.300;18.592;2024-01-16T12:35:32;10.20;;;2.90;;
67248;SDS011;63247;54.300;18.592;2024-01-16T12:38:01;13.32;;;3.83;;
67248;SDS011;63247;54.300;18.592;2024-01-16T12:40:28;7.82;;;2.13;;
67248;SDS011;63247;54.300;18.592;2024-01-16T12:42:54;7.30;;;2.20;;
67248;SDS011;63247;54.300;18.592;2024-01-16T12:45:20;6.53;;;1.52;;
67248;SDS011;63247;54.300;18.592;2024-01-16T12:47:53;6.05;;;2.05;;
67248;SDS011;63247;54.300;18.592;2024-01-16T12:50:19;4.45;;;1.10;;
67248;SDS011;63247;54.300;18.592;2024-01-16T12:53:04;5.80;;;1.40;;
67248;SDS011;63247;54.300;18.592;2024-01-16T12:55:31;7.40;;;2.30;;
67248;SDS011;63247;54.300;18.592;2024-01-16T12:58:14;8.45;;;2.55;;
67248;SDS011;63247;54.300;18.592;2024-01-16T13:00:40;10.65;;;3.33;;
67248;SDS011;63247;54.300;18.592;2024-01-16T13:03:06;7.40;;;1.90;;
67248;SDS011;63247;54.300;18.592;2024-01-16T13:05:32;6.68;;;1.80;;
67248;SDS011;63247;54.300;18.592;2024-01-16T13:08:01;2.87;;;0.70;;
67248;SDS011;63247;54.300;18.592;2024-01-16T13:10:30;4.25;;;0.65;;
67248;SDS011;63247;54.300;18.592;2024-01-16T13:13:12;5.15;;;1.25;;
67248;SDS011;63247;54.300;18.592;2024-01-16T13:15:38;3.95;;;1.10;;
67248;SDS011;63247;54.300;18.592;2024-01-16T13:18:04;4.00;;;1.10;;
67248;SDS011;63247;54.300;18.592;2024-01-16T13:20:31;3.47;;;0.80;;
67248;SDS011;63247;54.300;18.592;2024-01-16T13:22:57;5.20;;;1.37;;
67248;SDS011;63247;54.300;18.592;2024-01-16T13:25:22;3.85;;;1.10;;
67248;SDS011;63247;54.300;18.592;2024-01-16T13:27:47;4.37;;;0.80;;
67248;SDS011;63247;54.300;18.592;2024-01-16T13:30:13;5.00;;;1.37;;
67248;SDS011;63247;54.300;18.592;2024-01-16T13:32:39;9.18;;;3.03;;
67248;SDS011;63247;54.300;18.592;2024-01-16T13:35:05;11.27;;;3.13;;
67248;SDS011;63247;54.300;18.592;2024-01-16T13:37:33;7.73;;;2.23;;
67248;SDS011;63247;54.300;18.592;2024-01-16T13:40:02;7.00;;;1.83;;
67248;SDS011;63247;54.300;18.592;2024-01-16T13:42:28;7.85;;;1.80;;
67248;SDS011;63247;54.300;18.592;2024-01-16T13:44:54;10.17;;;2.50;;
67248;SDS011;63247;54.300;18.592;2024-01-16T13:47:19;9.97;;;2.87;;
67248;SDS011;63247;54.300;18.592;2024-01-16T13:49:45;4.70;;;1.30;;
67248;SDS011;63247;54.300;18.592;2024-01-16T13:52:10;5.50;;;1.45;;
67248;SDS011;63247;54.300;18.592;2024-01-16T13:54:36;7.47;;;2.10;;
67248;SDS011;63247;54.300;18.592;2024-01-16T13:57:03;6.38;;;1.67;;
67248;SDS011;63247;54.300;18.592;2024-01-16T13:59:29;7.83;;;1.93;;
67248;SDS011;63247;54.300;18.592;2024-01-16T14:01:54;8.27;;;1.97;;
67248;SDS011;63247;54.300;18.592;2024-01-16T14:04:19;5.37;;;1.00;;
67248;SDS011;63247;54.300;18.592;2024-01-16T14:06:45;5.07;;;1.42;;
67248;SDS011;63247;54.300;18.592;2024-01-16T14:09:11;6.30;;;2.10;;
67248;SDS011;63247;54.300;18.592;2024-01-16T14:11:38;8.50;;;2.08;;
67248;SDS011;63247;54.300;18.592;2024-01-16T14:14:04;7.80;;;2.00;;
67248;SDS011;63247;54.300;18.592;2024-01-16T14:16:30;7.50;;;1.80;;
67248;SDS011;63247;54.300;18.592;2024-01-16T14:18:56;6.47;;;1.57;;
67248;SDS011;63247;54.300;18.592;2024-01-16T14:21:23;6.47;;;1.70;;
67248;SDS011;63247;54.300;18.592;2024-01-16T14:23:49;14.90;;;2.43;;
67248;SDS011;63247;54.300;18.592;2024-01-16T14:26:14;12.50;;;2.67;;
67248;SDS011;63247;54.300;18.592;2024-01-16T14:28:40;8.30;;;2.42;;
67248;SDS011;63247;54.300;18.592;2024-01-16T14:31:06;10.40;;;2.33;;
67248;SDS011;63247;54.300;18.592;2024-01-16T14:33:32;8.90;;;2.55;;
67248;SDS011;63247;54.300;18.592;2024-01-16T14:35:59;9.20;;;2.80;;
67248;SDS011;63247;54.300;18.592;2024-01-16T14:38:25;9.77;;;2.30;;
67248;SDS011;63247;54.300;18.592;2024-01-16T14:40:50;7.70;;;2.13;;
67248;SDS011;63247;54.300;18.592;2024-01-16T14:43:17;12.55;;;2.78;;
67248;SDS011;63247;54.300;18.592;2024-01-16T14:45:42;10.47;;;2.67;;